Time;durP1;ratioP1;P1;durP2;ratioP2;P2;SDS_P1;SDS_P2;PMS_P1;PMS_P2;Temp;Humidity;BMP_temperature;BMP_pressure;BME280_temperature;BME280_humidity;BME280_pressure;Samples;Min_cycle;Max_cycle;Signal;HPM_P1;HPM_P2
2022/11/01 00:01:50;;;;;;;21.73;8.85;;;13.70;99.90;;;;;;5016384;28;20048;-72
2022/11/01 00:04:16;;;;;;;23.98;8.98;;;13.80;99.90;;;;;;5018154;28;20048;-72
2022/11/01 00:06:42;;;;;;;20.48;8.98;;;13.80;99.90;;;;;;5022051;28;20045;-72
2022/11/01 00:09:08;;;;;;;20.90;9.50;;;13.90;99.90;;;;;;5013579;28;20516;-72
2022/11/01 00:11:34;;;;;;;22.52;9.02;;;13.90;99.90;;;;;;5015842;28;20337;-72
2022/11/01 00:14:00;;;;;;;17.70;8.25;;;14.00;99.90;;;;;;5017325;28;20073;-72
2022/11/01 00:16:26;;;;;;;16.63;7.65;;;14.00;99.90;;;;;;5015708;28;20065;-72
2022/11/01 00:18:52;;;;;;;18.45;8.20;;;14.00;99.90;;;;;;5019764;28;20455;-72
2022/11/01 00:21:18;;;;;;;17.40;7.70;;;14.10;99.90;;;;;;5020134;28;20081;-72
2022/11/01 00:23:44;;;;;;;16.10;7.65;;;14.10;99.90;;;;;;5015468;28;20498;-72
2022/11/01 00:26:20;;;;;;;21.83;7.85;;;14.10;99.90;;;;;;5009140;28;20060;-71
2022/11/01 00:28:47;;;;;;;18.17;7.70;;;14.10;99.90;;;;;;5009597;28;20091;-71
2022/11/01 00:31:14;;;;;;;15.52;7.55;;;14.10;99.90;;;;;;5009563;28;20045;-72
2022/11/01 00:33:40;;;;;;;20.00;7.57;;;14.10;99.90;;;;;;5019804;28;20067;-72
2022/11/01 00:36:06;;;;;;;14.73;7.35;;;14.10;99.90;;;;;;5010915;28;20510;-72
2022/11/01 00:38:32;;;;;;;15.40;7.82;;;14.10;99.90;;;;;;5016551;28;20030;-72
2022/11/01 00:40:58;;;;;;;17.27;7.25;;;14.20;99.90;;;;;;5017574;28;20049;-72
2022/11/01 00:43:24;;;;;;;17.05;7.82;;;14.20;99.90;;;;;;5016749;28;20081;-72
2022/11/01 00:45:50;;;;;;;22.60;7.60;;;14.20;99.90;;;;;;4996948;28;20046;-73
2022/11/01 00:48:16;;;;;;;15.98;7.50;;;14.20;99.90;;;;;;5011343;28;20045;-73
2022/11/01 00:50:41;;;;;;;16.75;7.38;;;14.20;99.90;;;;;;5012917;28;20407;-72
2022/11/01 00:53:10;;;;;;;18.85;7.78;;;14.20;99.90;;;;;;5012573;28;20042;-72
2022/11/01 00:55:37;;;;;;;18.02;7.95;;;14.20;99.90;;;;;;5039441;28;20565;-72
2022/11/01 00:58:06;;;;;;;21.35;8.10;;;14.40;99.90;;;;;;5022146;28;20449;-73
2022/11/01 01:00:32;;;;;;;14.70;7.20;;;14.20;99.90;;;;;;5006493;28;20046;-72
2022/11/01 01:02:58;;;;;;;17.33;8.10;;;14.20;99.90;;;;;;5008007;28;20037;-72
2022/11/01 01:05:24;;;;;;;22.13;7.63;;;14.20;99.90;;;;;;5007794;28;20048;-72
2022/11/01 01:07:49;;;;;;;15.60;7.20;;;14.20;99.90;;;;;;4999891;28;20049;-72
2022/11/01 01:10:15;;;;;;;18.15;7.68;;;14.20;99.90;;;;;;5006743;28;20073;-72
2022/11/01 01:12:41;;;;;;;16.45;7.25;;;14.20;99.90;;;;;;5011521;28;20059;-72
2022/11/01 01:15:07;;;;;;;18.48;7.43;;;14.20;99.90;;;;;;5018061;28;20044;-72
2022/11/01 01:17:33;;;;;;;17.75;7.03;;;14.20;99.90;;;;;;5011691;28;20403;-72
2022/11/01 01:19:59;;;;;;;17.98;7.20;;;14.20;99.90;;;;;;5012946;28;20054;-73
2022/11/01 01:22:25;;;;;;;17.20;7.75;;;14.20;99.90;;;;;;5017265;28;20038;-72
2022/11/01 01:24:51;;;;;;;15.27;6.68;;;14.20;99.90;;;;;;5010069;28;20053;-72
2022/11/01 01:27:18;;;;;;;17.05;7.30;;;14.30;99.90;;;;;;5017089;28;20445;-72
2022/11/01 01:29:44;;;;;;;17.40;6.72;;;14.30;99.90;;;;;;5007216;28;20050;-73
2022/11/01 01:32:15;;;;;;;17.30;6.90;;;14.30;99.90;;;;;;5004907;28;20629;-72
2022/11/01 01:34:41;;;;;;;16.70;7.05;;;14.40;99.90;;;;;;5005001;28;20069;-72
2022/11/01 01:37:08;;;;;;;16.10;7.70;;;14.30;99.90;;;;;;4995038;28;20034;-72
2022/11/01 01:39:34;;;;;;;22.40;7.82;;;14.30;99.90;;;;;;5011089;28;20054;-72
2022/11/01 01:42:22;;;;;;;19.65;7.10;;;14.30;99.90;;;;;;5017793;28;20521;-72
2022/11/01 01:44:50;;;;;;;16.90;7.03;;;14.30;99.90;;;;;;5012042;28;20072;-71
2022/11/01 01:47:25;;;;;;;17.42;7.10;;;14.30;99.90;;;;;;5015141;28;20125;-72
2022/11/01 01:50:09;;;;;;;18.70;7.13;;;14.30;99.90;;;;;;5002790;28;20075;-71
2022/11/01 01:52:51;;;;;;;16.55;7.20;;;14.30;99.90;;;;;;5008059;28;20457;-71
2022/11/01 01:55:19;;;;;;;;;;;14.30;99.90;;;;;;5023738;28;20045;-72
2022/11/01 01:57:45;;;;;;;20.30;7.68;;;14.60;99.90;;;;;;5048334;28;19933;-72
2022/11/01 02:00:12;;;;;;;17.27;7.22;;;14.30;99.90;;;;;;5020094;28;20350;-72
2022/11/01 02:02:40;;;;;;;20.13;7.55;;;14.30;99.90;;;;;;5026074;28;20033;-72
2022/11/01 02:05:20;;;;;;;17.30;6.57;;;14.30;99.90;;;;;;5017290;28;20100;-72
2022/11/01 02:07:46;;;;;;;16.23;7.28;;;14.30;99.90;;;;;;5016276;28;20415;-72
2022/11/01 02:10:13;;;;;;;14.77;6.88;;;14.30;99.90;;;;;;5002558;28;20079;-72
2022/11/01 02:12:45;;;;;;;18.08;7.20;;;14.30;99.90;;;;;;5022663;28;20396;-72
2022/11/01 02:15:12;;;;;;;18.40;7.13;;;14.30;99.90;;;;;;5019735;28;20108;-71
2022/11/01 02:17:49;;;;;;;20.00;6.93;;;14.30;99.90;;;;;;5015132;28;20045;-71
2022/11/01 02:20:45;;;;;;;15.32;7.18;;;14.30;99.90;;;;;;5009071;28;20135;-71
2022/11/01 02:23:11;;;;;;;20.25;7.15;;;14.20;99.90;;;;;;5028511;28;20103;-72
2022/11/01 02:26:15;;;;;;;14.13;6.80;;;14.20;99.90;;;;;;5026914;28;20441;-72
2022/11/01 02:29:05;;;;;;;16.48;6.57;;;14.20;99.90;;;;;;5009432;28;20158;-72
2022/11/01 02:31:33;;;;;;;15.10;7.40;;;14.20;99.90;;;;;;5024849;28;20061;-72
2022/11/01 02:34:09;;;;;;;15.82;6.40;;;14.20;99.90;;;;;;5009629;28;20170;-72
2022/11/01 02:36:56;;;;;;;17.02;6.65;;;14.20;99.90;;;;;;5026841;28;20172;-71
2022/11/01 02:39:28;;;;;;;13.52;6.25;;;14.30;99.90;;;;;;5026389;28;20080;-72
2022/11/01 02:42:03;;;;;;;20.20;7.50;;;14.30;99.90;;;;;;5026559;28;20079;-71
2022/11/01 02:44:35;;;;;;;14.73;7.05;;;14.30;99.90;;;;;;5023736;28;20041;-72
2022/11/01 02:47:02;;;;;;;17.13;6.78;;;14.30;99.90;;;;;;5045301;28;20038;-71
2022/11/01 02:49:39;;;;;;;19.60;6.00;;;14.30;99.90;;;;;;5011590;28;20045;-72
2022/11/01 02:52:08;;;;;;;18.17;6.93;;;14.30;99.90;;;;;;5024481;28;20568;-71
2022/11/01 02:54:41;;;;;;;12.27;7.03;;;14.30;99.90;;;;;;5027691;28;20041;-72
2022/11/01 02:57:29;;;;;;;18.60;6.88;;;14.40;99.90;;;;;;5026295;28;20041;-72
2022/11/01 03:00:02;;;;;;;12.10;6.28;;;14.40;99.90;;;;;;5025862;28;20140;-72
2022/11/01 03:02:43;;;;;;;15.90;6.40;;;14.30;99.90;;;;;;5025335;28;20033;-72
2022/11/01 03:05:32;;;;;;;14.43;6.90;;;14.30;99.90;;;;;;5023652;28;20063;-72
2022/11/01 03:08:03;;;;;;;14.68;6.47;;;14.40;99.90;;;;;;5024885;28;20053;-71
2022/11/01 03:10:51;;;;;;;15.75;6.55;;;14.30;99.90;;;;;;5028597;28;20041;-72
2022/11/01 03:13:42;;;;;;;15.10;6.40;;;14.40;99.90;;;;;;5026577;28;20041;-72
2022/11/01 03:16:08;;;;;;;18.58;6.03;;;14.30;99.90;;;;;;5028064;28;20046;-72
2022/11/01 03:18:44;;;;;;;18.67;6.28;;;14.40;99.90;;;;;;5028415;28;20052;-72
2022/11/01 03:21:14;;;;;;;13.68;5.95;;;14.60;99.90;;;;;;5025123;28;20048;-72
2022/11/01 03:24:03;;;;;;;15.25;6.68;;;14.40;99.90;;;;;;5024357;28;20665;-72
2022/11/01 03:26:32;;;;;;;13.93;5.63;;;14.40;99.90;;;;;;5026925;28;20507;-72
2022/11/01 03:29:04;;;;;;;15.43;6.90;;;14.30;99.90;;;;;;5028606;28;20136;-72
2022/11/01 03:31:33;;;;;;;13.57;6.28;;;14.40;99.90;;;;;;5029287;28;20053;-72
2022/11/01 03:34:01;;;;;;;15.73;6.82;;;14.40;99.90;;;;;;5028303;28;20076;-72
2022/11/01 03:36:33;;;;;;;13.90;6.18;;;14.40;99.90;;;;;;5008448;28;20164;-72
2022/11/01 03:39:04;;;;;;;15.30;6.57;;;14.40;99.90;;;;;;5030508;28;20084;-72
2022/11/01 03:41:36;;;;;;;12.93;6.60;;;14.40;99.90;;;;;;5023154;28;20112;-71
2022/11/01 03:44:05;;;;;;;12.00;6.03;;;14.40;99.90;;;;;;5025967;28;20110;-72
2022/11/01 03:46:31;;;;;;;11.75;5.22;;;14.50;99.90;;;;;;5029294;28;20506;-72
2022/11/01 03:48:57;;;;;;;13.35;6.15;;;14.50;99.90;;;;;;5026544;28;20045;-72
2022/11/01 03:51:22;;;;;;;14.77;6.15;;;14.50;99.90;;;;;;5027090;28;20052;-72
2022/11/01 03:53:48;;;;;;;16.80;6.15;;;14.50;99.90;;;;;;5022602;28;20064;-72
2022/11/01 03:56:14;;;;;;;17.05;6.32;;;14.60;99.90;;;;;;5026128;28;20406;-72
2022/11/01 03:58:43;;;;;;;16.55;5.53;;;14.60;99.90;;;;;;5025072;28;20049;-72
2022/11/01 04:01:13;;;;;;;14.60;5.38;;;14.60;99.90;;;;;;5016895;28;20054;-72
2022/11/01 04:03:39;;;;;;;14.02;5.20;;;14.60;99.90;;;;;;4998704;28;20045;-72
2022/11/01 04:06:05;;;;;;;17.77;6.35;;;14.60;99.90;;;;;;5025924;28;20039;-72
2022/11/01 04:08:31;;;;;;;13.30;4.63;;;14.60;99.90;;;;;;5029222;28;20037;-71
2022/11/01 04:10:58;;;;;;;12.57;5.50;;;14.60;99.90;;;;;;5025385;28;20041;-71
2022/11/01 04:13:27;;;;;;;12.85;5.85;;;14.60;99.90;;;;;;5027534;28;20130;-71
2022/11/01 04:21:25;;;;;;;12.93;5.50;;;14.80;99.90;;;;;;5025760;28;20049;-71
2022/11/01 04:23:51;;;;;;;17.08;5.25;;;14.80;99.90;;;;;;5024329;28;20064;-72
2022/11/01 04:26:20;;;;;;;14.18;5.28;;;14.90;99.90;;;;;;5026742;28;20128;-71
2022/11/01 04:28:55;;;;;;;15.05;4.95;;;14.90;99.90;;;;;;5056446;28;20050;-71
2022/11/01 04:31:39;;;;;;;12.27;5.32;;;15.00;99.90;;;;;;5008901;28;20494;-72
2022/11/01 04:34:05;;;;;;;12.98;4.97;;;15.00;99.90;;;;;;5023660;28;20060;-71
2022/11/01 04:36:31;;;;;;;12.70;5.30;;;15.10;99.90;;;;;;5008258;28;20080;-71
2022/11/01 04:38:57;;;;;;;16.02;4.80;;;15.10;99.90;;;;;;5024268;28;20955;-71
2022/11/01 04:41:25;;;;;;;14.48;5.45;;;15.10;99.90;;;;;;5006146;28;20091;-71
2022/11/01 04:43:56;;;;;;;10.40;4.68;;;15.30;99.90;;;;;;5026219;28;20049;-71
2022/11/01 04:46:22;;;;;;;11.27;5.00;;;15.10;99.90;;;;;;5024898;28;20029;-71
2022/11/01 04:48:48;;;;;;;16.30;5.15;;;15.10;99.90;;;;;;5026124;28;20095;-71
2022/11/01 04:51:14;;;;;;;14.57;5.13;;;15.20;99.90;;;;;;5026069;28;20052;-71
2022/11/01 04:53:39;;;;;;;10.82;4.85;;;15.20;99.90;;;;;;5024535;28;20640;-72
2022/11/01 04:56:09;;;;;;;14.13;5.03;;;15.20;99.90;;;;;;5028401;28;20056;-71
2022/11/01 04:58:35;;;;;;;15.48;4.78;;;15.30;99.90;;;;;;5006555;28;20041;-71
2022/11/01 05:01:07;;;;;;;11.63;4.88;;;15.30;99.90;;;;;;5003676;28;20057;-70
2022/11/01 05:03:34;;;;;;;14.23;4.43;;;15.30;99.90;;;;;;5017700;28;20045;-71
2022/11/01 05:06:00;;;;;;;12.98;4.88;;;15.40;99.90;;;;;;5018793;28;20034;-71
2022/11/01 05:08:26;;;;;;;10.30;4.93;;;15.40;99.90;;;;;;5015261;28;20041;-71
2022/11/01 05:10:54;;;;;;;11.25;4.55;;;15.40;99.90;;;;;;5010900;28;20528;-71
2022/11/01 05:13:20;;;;;;;10.90;4.63;;;15.40;99.90;;;;;;5022132;28;20120;-72
2022/11/01 05:15:46;;;;;;;10.35;3.97;;;15.40;99.90;;;;;;5022990;28;20038;-72
2022/11/01 05:18:12;;;;;;;14.07;4.72;;;15.40;99.90;;;;;;5015817;28;20034;-72
2022/11/01 05:20:37;;;;;;;11.57;4.25;;;15.40;99.90;;;;;;5018023;28;20060;-72
2022/11/01 05:23:04;;;;;;;11.15;4.25;;;15.40;99.90;;;;;;5022263;28;20049;-72
2022/11/01 05:25:30;;;;;;;14.30;5.10;;;15.40;99.90;;;;;;5003537;28;20637;-70
2022/11/01 05:28:02;;;;;;;13.35;3.47;;;15.40;99.90;;;;;;5022181;28;20391;-72
2022/11/01 05:30:28;;;;;;;10.23;4.00;;;15.40;99.90;;;;;;5022473;28;20085;-71
2022/11/01 05:32:59;;;;;;;12.25;4.20;;;15.40;99.90;;;;;;5012849;28;20119;-71
2022/11/01 05:35:26;;;;;;;11.02;4.75;;;15.40;99.90;;;;;;5020960;28;20462;-72
2022/11/01 05:37:51;;;;;;;9.85;4.40;;;15.40;99.90;;;;;;5015852;28;20498;-72
2022/11/01 05:40:17;;;;;;;9.80;4.00;;;15.40;99.90;;;;;;5021698;28;20053;-71
2022/11/01 05:42:43;;;;;;;9.93;4.20;;;15.40;99.90;;;;;;5015115;28;20176;-71
2022/11/01 05:45:09;;;;;;;11.77;4.22;;;15.40;99.90;;;;;;5020058;28;20486;-71
2022/11/01 05:47:35;;;;;;;8.70;3.75;;;15.40;99.90;;;;;;5012907;28;20041;-72
2022/11/01 05:50:01;;;;;;;12.70;4.18;;;15.40;99.90;;;;;;5025219;28;20590;-72
2022/11/01 05:52:26;;;;;;;11.20;3.65;;;15.30;99.90;;;;;;5027105;28;20050;-71
2022/11/01 05:54:52;;;;;;;7.65;3.58;;;15.30;99.90;;;;;;5020228;28;20057;-73
2022/11/01 05:57:18;;;;;;;10.48;2.95;;;15.30;99.90;;;;;;5007870;28;20053;-72
2022/11/01 05:59:43;;;;;;;11.48;3.20;;;15.20;99.90;;;;;;5019943;28;20045;-72
2022/11/01 06:02:09;;;;;;;10.05;2.42;;;15.20;99.90;;;;;;5019308;28;20045;-72
2022/11/01 06:04:35;;;;;;;9.93;2.25;;;15.10;99.90;;;;;;5022021;28;20045;-72
2022/11/01 06:07:00;;;;;;;9.55;1.92;;;15.10;99.90;;;;;;5020487;28;20046;-72
2022/11/01 06:09:26;;;;;;;5.65;1.50;;;15.00;99.90;;;;;;5011764;28;20128;-73
2022/11/01 06:11:52;;;;;;;8.55;1.42;;;14.90;99.90;;;;;;5013901;28;20106;-72
2022/11/01 06:14:17;;;;;;;8.50;1.60;;;14.90;99.90;;;;;;5006024;28;20085;-73
2022/11/01 06:16:43;;;;;;;5.28;1.20;;;14.80;99.90;;;;;;5018237;28;20056;-72
2022/11/01 06:19:09;;;;;;;7.65;2.30;;;14.80;99.90;;;;;;5004217;28;20437;-71
2022/11/01 06:21:35;;;;;;;7.38;1.20;;;14.70;99.90;;;;;;5006095;28;20050;-72
2022/11/01 06:24:01;;;;;;;6.15;1.25;;;14.70;99.90;;;;;;5004860;28;20120;-71
2022/11/01 06:26:26;;;;;;;5.43;1.25;;;14.60;99.90;;;;;;5004637;28;20049;-72
2022/11/01 06:28:52;;;;;;;8.40;1.70;;;14.50;99.90;;;;;;4992579;28;20485;-72
2022/11/01 06:31:18;;;;;;;4.63;1.00;;;14.50;99.90;;;;;;5012257;28;20058;-73
2022/11/01 06:33:43;;;;;;;3.95;0.98;;;14.50;99.90;;;;;;5004827;28;20053;-71
2022/11/01 06:36:09;;;;;;;5.10;1.27;;;14.40;99.90;;;;;;5011936;28;20033;-71
2022/11/01 06:38:35;;;;;;;7.22;1.20;;;14.30;99.90;;;;;;5010195;28;20054;-72
2022/11/01 06:41:01;;;;;;;5.93;1.25;;;14.30;99.90;;;;;;5004244;28;20045;-72
2022/11/01 06:43:27;;;;;;;7.40;1.20;;;14.30;99.90;;;;;;5017170;28;20079;-71
2022/11/01 06:45:53;;;;;;;9.25;1.05;;;14.20;99.90;;;;;;5014073;28;20050;-72
2022/11/01 06:48:19;;;;;;;7.95;1.02;;;14.10;99.90;;;;;;5023751;28;20718;-72
2022/11/01 06:50:44;;;;;;;8.80;1.67;;;14.10;99.90;;;;;;5015435;28;20045;-71
2022/11/01 06:53:10;;;;;;;10.23;1.33;;;14.10;99.90;;;;;;5020093;28;20045;-72
2022/11/01 06:55:36;;;;;;;8.60;0.80;;;14.00;99.90;;;;;;5019113;28;20046;-74
2022/11/01 06:58:03;;;;;;;5.47;1.15;;;14.00;99.90;;;;;;5019701;28;20037;-72
2022/11/01 07:00:29;;;;;;;10.82;1.67;;;13.90;99.90;;;;;;5019719;28;20042;-72
2022/11/01 07:03:04;;;;;;;9.13;1.35;;;13.90;99.90;;;;;;5016047;28;20119;-72
2022/11/01 07:05:35;;;;;;;10.30;1.38;;;13.90;99.90;;;;;;5014358;28;20045;-73
2022/11/01 07:08:01;;;;;;;8.85;1.38;;;13.80;99.90;;;;;;5005518;28;20574;-73
2022/11/01 07:10:27;;;;;;;10.50;1.67;;;13.80;99.90;;;;;;5019343;28;20045;-72
2022/11/01 07:13:00;;;;;;;6.88;1.33;;;13.90;99.90;;;;;;5014406;28;20053;-72
2022/11/01 07:15:27;;;;;;;8.75;1.50;;;13.70;99.90;;;;;;5016740;28;20042;-71
2022/11/01 07:17:57;;;;;;;10.88;1.70;;;13.70;99.90;;;;;;5016842;28;20062;-72
2022/11/01 07:20:23;;;;;;;15.63;1.67;;;13.70;99.90;;;;;;5019289;28;20446;-72
2022/11/01 07:22:59;;;;;;;10.48;1.90;;;13.70;99.90;;;;;;5020300;28;20057;-72
2022/11/01 07:25:25;;;;;;;14.55;1.58;;;13.60;99.90;;;;;;5014958;28;20122;-71
2022/11/01 07:27:51;;;;;;;14.60;1.92;;;13.70;99.90;;;;;;5015018;28;20140;-71
2022/11/01 07:30:17;;;;;;;9.50;1.52;;;13.70;99.90;;;;;;5017899;28;20170;-71
2022/11/01 07:32:42;;;;;;;13.60;1.90;;;13.70;99.90;;;;;;5016510;28;20046;-71
2022/11/01 07:35:08;;;;;;;11.30;2.45;;;13.70;99.90;;;;;;5016795;28;20558;-72
2022/11/01 07:37:34;;;;;;;11.38;1.80;;;13.70;99.90;;;;;;5018198;28;20045;-71
2022/11/01 07:40:00;;;;;;;18.52;2.53;;;13.80;99.90;;;;;;5018407;28;20073;-71
2022/11/01 07:42:26;;;;;;;14.93;2.15;;;13.80;99.90;;;;;;5021492;28;20061;-72
2022/11/01 07:44:52;;;;;;;14.60;2.13;;;13.80;99.90;;;;;;5003832;28;20052;-72
2022/11/01 07:47:17;;;;;;;11.05;1.80;;;14.00;99.90;;;;;;5015768;28;20105;-72
2022/11/01 07:49:43;;;;;;;12.38;1.80;;;13.80;99.90;;;;;;5017438;28;20051;-71
2022/11/01 07:52:09;;;;;;;11.85;1.77;;;13.90;99.90;;;;;;5017962;28;20042;-70
2022/11/01 07:54:34;;;;;;;13.35;2.05;;;13.90;99.90;;;;;;5002346;28;20092;-71
2022/11/01 07:57:00;;;;;;;15.93;2.65;;;13.90;99.90;;;;;;5016792;28;20559;-72
2022/11/01 07:59:26;;;;;;;16.20;1.90;;;14.00;99.90;;;;;;5015520;28;20045;-71
2022/11/01 08:01:51;;;;;;;11.63;2.63;;;13.90;99.90;;;;;;5019179;28;20041;-71
2022/11/01 08:04:17;;;;;;;14.23;2.63;;;14.00;99.90;;;;;;5011541;28;20061;-72
2022/11/01 08:06:43;;;;;;;12.68;2.42;;;14.00;99.90;;;;;;5015333;28;20041;-70
2022/11/01 08:09:08;;;;;;;17.75;3.00;;;14.30;99.90;;;;;;5017991;28;20041;-72
2022/11/01 08:11:34;;;;;;;11.13;2.10;;;14.00;99.90;;;;;;5000303;28;20056;-71
2022/11/01 08:14:00;;;;;;;18.55;2.20;;;14.00;99.90;;;;;;5017777;28;20069;-71
2022/11/01 08:16:26;;;;;;;14.50;2.28;;;14.00;99.90;;;;;;5014668;28;20045;-71
2022/11/01 08:18:51;;;;;;;12.48;2.38;;;14.20;99.90;;;;;;5018660;28;21661;-71
2022/11/01 08:21:20;;;;;;;17.40;2.30;;;14.00;99.90;;;;;;5016486;28;20120;-71
2022/11/01 08:23:45;;;;;;;15.32;2.53;;;14.10;99.90;;;;;;5008945;28;20052;-70
2022/11/01 08:26:11;;;;;;;16.25;2.83;;;14.10;99.90;;;;;;5012488;28;20041;-72
2022/11/01 08:28:38;;;;;;;15.10;2.42;;;14.10;99.90;;;;;;5014822;28;20368;-71
2022/11/01 08:31:08;;;;;;;13.48;2.08;;;14.10;99.90;;;;;;5021093;28;20057;-71
2022/11/01 08:33:34;;;;;;;16.60;2.58;;;14.10;99.90;;;;;;5008888;28;20077;-71
2022/11/01 08:36:00;;;;;;;18.75;3.35;;;14.10;99.90;;;;;;5006964;28;20139;-71
2022/11/01 08:38:26;;;;;;;12.38;2.50;;;14.10;99.90;;;;;;5015690;28;20049;-71
2022/11/01 08:40:53;;;;;;;15.23;2.67;;;14.20;99.90;;;;;;5011634;28;20308;-71
2022/11/01 08:43:19;;;;;;;16.17;2.90;;;14.10;99.90;;;;;;5014605;28;20069;-71
2022/11/01 08:45:45;;;;;;;21.65;3.60;;;14.00;99.90;;;;;;5012953;28;20633;-71
2022/11/01 08:48:11;;;;;;;13.70;2.10;;;14.10;99.90;;;;;;5008823;28;20045;-72
2022/11/01 08:50:37;;;;;;;16.55;2.42;;;14.00;99.90;;;;;;5005817;28;20037;-71
2022/11/01 08:53:13;;;;;;;19.65;2.85;;;14.00;99.90;;;;;;5004425;28;20042;-72
2022/11/01 08:55:39;;;;;;;18.40;3.13;;;14.30;99.90;;;;;;5002918;28;20041;-72
2022/11/01 08:58:06;;;;;;;16.65;2.22;;;14.00;99.90;;;;;;5014285;28;20057;-72
2022/11/01 09:00:33;;;;;;;21.63;2.72;;;14.00;99.90;;;;;;5031536;28;21110;-72
2022/11/01 09:02:59;;;;;;;14.88;2.92;;;14.00;99.90;;;;;;5006651;28;20041;-73
2022/11/01 09:05:24;;;;;;;17.83;2.70;;;14.00;99.90;;;;;;5003909;28;20656;-72
2022/11/01 09:07:55;;;;;;;20.00;3.17;;;14.00;99.90;;;;;;5006429;28;20594;-72
2022/11/01 09:10:21;;;;;;;14.43;2.25;;;14.00;99.90;;;;;;5012383;28;20071;-72
2022/11/01 09:12:47;;;;;;;16.27;3.15;;;14.10;99.90;;;;;;5037350;28;20046;-72
2022/11/01 09:15:12;;;;;;;17.77;2.97;;;14.10;99.90;;;;;;4997477;28;20092;-72
2022/11/01 09:17:38;;;;;;;21.60;2.72;;;14.10;99.90;;;;;;5017282;28;20073;-72
2022/11/01 09:20:04;;;;;;;23.85;3.83;;;14.20;99.90;;;;;;5015056;28;20095;-72
2022/11/01 09:22:30;;;;;;;20.67;2.85;;;14.20;99.90;;;;;;5035356;28;20042;-72
2022/11/01 09:24:57;;;;;;;23.83;3.10;;;14.20;99.90;;;;;;5014457;28;20287;-72
2022/11/01 09:27:23;;;;;;;16.33;2.83;;;14.20;99.90;;;;;;5016020;28;20034;-72
2022/11/01 09:29:49;;;;;;;20.63;2.83;;;14.30;99.90;;;;;;5015577;28;20077;-71
2022/11/01 09:32:15;;;;;;;22.38;2.80;;;14.40;99.90;;;;;;5013255;28;20083;-70
2022/11/01 09:34:40;;;;;;;17.33;3.33;;;14.40;99.90;;;;;;5016894;28;20041;-70
2022/11/01 09:37:06;;;;;;;19.75;3.20;;;14.40;99.90;;;;;;5017720;28;20063;-71
2022/11/01 09:39:32;;;;;;;26.25;3.65;;;14.50;99.90;;;;;;5001296;28;20042;-71
2022/11/01 09:42:10;;;;;;;19.85;2.78;;;14.40;99.90;;;;;;5015008;28;20125;-70
2022/11/01 09:44:41;;;;;;;15.73;2.90;;;14.50;99.90;;;;;;5037948;28;20086;-70
2022/11/01 09:47:19;;;;;;;20.52;3.30;;;14.50;99.90;;;;;;5012003;28;20049;-72
2022/11/01 09:49:50;;;;;;;16.42;2.95;;;14.50;99.90;;;;;;5011153;28;20054;-72
2022/11/01 09:52:21;;;;;;;23.08;3.38;;;14.50;99.90;;;;;;5015340;28;20041;-71
2022/11/01 09:54:47;;;;;;;15.32;2.45;;;14.50;99.90;;;;;;5012757;28;20034;-72
2022/11/01 09:57:34;;;;;;;21.33;3.97;;;14.60;99.90;;;;;;5012610;28;20052;-72
2022/11/01 10:00:27;;;;;;;25.23;3.25;;;14.60;99.90;;;;;;5011089;28;20093;-73
2022/11/01 10:03:04;;;;;;;15.25;2.90;;;14.60;99.90;;;;;;5003921;28;20445;-73
2022/11/01 10:05:51;;;;;;;19.75;3.03;;;14.70;99.90;;;;;;5019106;28;20096;-73
2022/11/01 10:08:33;;;;;;;17.17;3.10;;;14.70;99.90;;;;;;5016648;28;20042;-73
2022/11/01 10:11:05;;;;;;;22.90;2.83;;;14.80;99.90;;;;;;5020081;28;20053;-71
2022/11/01 10:13:49;;;;;;;13.02;3.08;;;14.80;99.90;;;;;;5019630;28;20426;-72
2022/11/01 10:16:26;;;;;;;18.08;3.22;;;14.90;99.90;;;;;;5017971;28;20556;-72
2022/11/01 10:19:03;;;;;;;17.63;3.08;;;14.90;99.90;;;;;;5024093;28;20049;-72
2022/11/01 10:21:41;;;;;;;20.60;2.80;;;14.90;99.90;;;;;;5024386;28;20056;-72
2022/11/01 10:24:27;;;;;;;13.45;3.47;;;14.90;99.90;;;;;;5020327;28;20045;-70
2022/11/01 10:27:06;;;;;;;27.60;3.65;;;14.90;99.90;;;;;;5016805;28;20049;-70
2022/11/01 10:29:41;;;;;;;23.48;4.15;;;14.90;99.90;;;;;;5019480;28;20103;-70
2022/11/01 10:32:34;;;;;;;19.88;3.33;;;14.90;99.90;;;;;;5007281;28;20434;-71
2022/11/01 10:35:13;;;;;;;20.35;3.33;;;14.90;99.90;;;;;;5037547;28;20057;-71
2022/11/01 10:37:53;;;;;;;18.85;3.20;;;14.90;99.90;;;;;;5025465;28;20037;-70
2022/11/01 10:40:26;;;;;;;19.15;3.10;;;14.90;99.90;;;;;;5022135;28;20129;-71
2022/11/01 10:42:51;;;;;;;20.83;3.03;;;14.90;99.90;;;;;;5024074;28;20063;-70
2022/11/01 10:45:21;;;;;;;18.20;3.03;;;14.90;99.90;;;;;;5020682;28;20053;-70
2022/11/01 10:47:53;;;;;;;19.63;3.17;;;14.90;99.90;;;;;;5038686;28;20414;-71
2022/11/01 10:50:21;;;;;;;20.30;2.88;;;14.90;99.90;;;;;;5015969;28;20053;-71
2022/11/01 10:53:15;;;;;;;23.80;3.13;;;14.90;99.90;;;;;;5016108;28;20444;-71
2022/11/01 10:55:50;;;;;;;22.88;2.55;;;14.90;99.90;;;;;;5015565;28;20057;-70
2022/11/01 10:58:32;;;;;;;19.63;2.45;;;14.90;99.90;;;;;;5019437;28;20052;-70
2022/11/01 11:01:01;;;;;;;24.60;3.08;;;14.90;99.90;;;;;;5019295;28;20112;-71
2022/11/01 11:03:32;;;;;;;17.58;2.95;;;14.90;99.90;;;;;;5019266;28;20126;-70
2022/11/01 11:06:00;;;;;;;;;;;14.80;99.90;;;;;;5015108;28;20041;-70
2022/11/01 11:08:26;;;;;;;12.60;2.10;;;14.80;99.90;;;;;;5033037;28;20374;-70
2022/11/01 11:10:53;;;;;;;14.38;2.50;;;14.80;99.90;;;;;;5044162;28;20431;-71
2022/11/01 11:13:21;;;;;;;18.20;3.45;;;14.70;99.90;;;;;;5019492;28;20380;-71
2022/11/01 11:15:59;;;;;;;20.08;3.20;;;14.70;99.90;;;;;;5019867;28;20034;-71
2022/11/01 11:18:37;;;;;;;18.00;3.33;;;14.70;99.90;;;;;;5013684;28;20053;-71
2022/11/01 11:21:12;;;;;;;15.40;2.80;;;14.70;99.90;;;;;;5020515;28;20050;-71
2022/11/01 11:23:43;;;;;;;18.77;3.08;;;14.70;99.90;;;;;;5016287;28;20041;-72
2022/11/01 11:26:19;;;;;;;;;;;14.70;99.90;;;;;;5016385;28;20050;-71
2022/11/01 11:28:53;;;;;;;17.48;2.88;;;14.70;99.90;;;;;;5041260;28;20314;-72
2022/11/01 11:31:33;;;;;;;20.05;3.70;;;14.70;99.90;;;;;;5011918;28;20057;-73
2022/11/01 11:34:21;;;;;;;19.88;2.88;;;14.70;99.90;;;;;;5021702;28;20049;-72
2022/11/01 11:36:53;;;;;;;14.82;2.72;;;14.80;99.90;;;;;;5018508;28;20554;-72
2022/11/01 11:39:28;;;;;;;21.08;2.50;;;14.80;99.90;;;;;;5012573;28;20049;-72
2022/11/01 11:42:09;;;;;;;23.25;2.75;;;14.80;99.90;;;;;;5034150;28;20124;-71
2022/11/01 11:44:42;;;;;;;16.63;2.63;;;14.90;99.90;;;;;;5020671;28;20449;-72
2022/11/01 11:47:24;;;;;;;19.65;2.63;;;14.90;99.90;;;;;;5007394;28;20049;-72
2022/11/01 11:49:55;;;;;;;18.35;2.70;;;15.00;99.90;;;;;;5009061;28;20049;-73
2022/11/01 11:52:25;;;;;;;;;;;15.00;99.90;;;;;;5015557;28;20466;-71
2022/11/01 11:54:50;;;;;;;15.43;2.60;;;15.00;99.90;;;;;;5017888;28;20661;-71
2022/11/01 11:57:23;;;;;;;14.82;2.47;;;15.10;99.90;;;;;;5015531;28;20075;-72
2022/11/01 11:59:53;;;;;;;16.80;2.70;;;15.10;99.90;;;;;;5015454;28;20041;-71
2022/11/01 12:02:33;;;;;;;16.75;2.67;;;15.10;99.90;;;;;;5017416;28;20046;-71
2022/11/01 12:05:05;;;;;;;18.75;3.63;;;15.10;99.90;;;;;;5018640;28;20050;-71
2022/11/01 12:07:43;;;;;;;14.15;3.35;;;15.20;99.90;;;;;;5016494;28;20057;-71
2022/11/01 12:10:33;;;;;;;12.20;2.17;;;15.20;99.90;;;;;;5038211;28;20566;-70
2022/11/01 12:13:01;;;;;;;14.80;2.30;;;15.20;99.90;;;;;;5019826;28;20056;-71
2022/11/01 12:15:29;;;;;;;16.90;2.70;;;15.30;99.90;;;;;;5019420;28;20069;-70
2022/11/01 12:17:56;;;;;;;19.35;3.25;;;15.30;99.90;;;;;;5021958;28;21442;-71
2022/11/01 12:20:25;;;;;;;13.13;2.70;;;15.40;99.90;;;;;;5018199;28;20107;-71
2022/11/01 12:23:05;;;;;;;18.95;2.88;;;15.40;99.90;;;;;;5018305;28;20068;-70
2022/11/01 12:25:36;;;;;;;15.60;2.40;;;15.50;99.90;;;;;;5001951;28;20702;-71
2022/11/01 12:28:06;;;;;;;12.18;2.20;;;15.50;99.90;;;;;;5034684;28;20081;-71
2022/11/01 12:30:34;;;;;;;15.07;2.70;;;15.60;99.90;;;;;;5017331;28;20066;-71
2022/11/01 12:33:19;;;;;;;17.15;2.55;;;15.70;99.90;;;;;;5018029;28;20053;-71
2022/11/01 12:35:46;;;;;;;20.17;2.70;;;15.60;99.90;;;;;;5020530;28;20505;-72
2022/11/01 12:38:41;;;;;;;16.38;2.53;;;15.60;99.90;;;;;;5030022;28;20073;-71
2022/11/01 12:41:22;;;;;;;16.35;2.35;;;15.60;99.90;;;;;;5009952;28;20415;-72
2022/11/01 12:43:51;;;;;;;15.13;2.78;;;15.60;99.90;;;;;;5019373;28;20042;-73
2022/11/01 12:46:44;;;;;;;14.52;2.33;;;15.60;99.90;;;;;;5000288;28;20099;-72
2022/11/01 12:49:20;;;;;;;18.35;2.17;;;15.70;99.90;;;;;;5013339;28;21648;-73
2022/11/01 12:51:53;;;;;;;17.00;2.65;;;15.70;99.90;;;;;;5013559;28;20044;-72
2022/11/01 12:54:26;;;;;;;13.45;2.45;;;15.70;99.90;;;;;;5015896;28;20042;-71
2022/11/01 12:56:55;;;;;;;12.45;1.92;;;15.70;99.90;;;;;;5029753;28;20042;-72
2022/11/01 12:59:34;;;;;;;10.10;2.15;;;15.70;99.90;;;;;;5014361;28;20076;-72